Time;durP1;ratioP1;P1;durP2;ratioP2;P2;SDS_P1;SDS_P2;PMS_P1;PMS_P2;Temp;Humidity;BMP_temperature;BMP_pressure;BME280_temperature;BME280_humidity;BME280_pressure;Samples;Min_cycle;Max_cycle;Signal;HPM_P1;HPM_P2
2022/10/14 00:00:04;;;;;;;30.53;18.87;;;10.50;99.90;;;10.55;99.39;101115.34;4994334;28;20521;-70
2022/10/14 00:02:41;;;;;;;28.43;19.47;;;10.60;51.70;;;10.50;99.48;101118.63;4994719;28;20432;-68
2022/10/14 00:05:10;;;;;;;28.00;20.30;;;10.60;99.90;;;10.46;99.56;101111.91;4994483;28;20952;-70
2022/10/14 00:07:39;;;;;;;29.23;19.60;;;10.50;1.00;;;10.34;99.82;101108.09;4993786;28;20484;-69
2022/10/14 00:10:09;;;;;;;32.33;20.10;;;10.50;99.90;;;10.25;100.00;101102.00;4993644;28;20408;-70
2022/10/14 00:12:38;;;;;;;24.10;18.43;;;10.40;1.00;;;10.16;100.00;101103.16;4993565;28;20472;-69
2022/10/14 00:15:08;;;;;;;24.03;18.33;;;10.30;99.90;;;10.09;100.00;101095.97;4994643;28;20528;-69
2022/10/14 00:17:39;;;;;;;28.77;19.10;;;10.20;99.90;;;10.09;100.00;101094.09;4996397;28;20469;-70
2022/10/14 00:20:09;;;;;;;28.43;19.83;;;10.20;1.00;;;9.98;100.00;101100.88;4995817;28;20433;-71
2022/10/14 00:22:38;;;;;;;37.60;20.10;;;10.10;1.00;;;9.91;100.00;101096.44;4995482;28;20918;-70
2022/10/14 00:25:08;;;;;;;34.27;18.80;;;10.00;93.80;;;9.84;100.00;101099.06;4994085;28;20496;-70
2022/10/14 00:27:37;;;;;;;25.53;17.33;;;9.90;99.90;;;9.90;100.00;101103.69;4993711;28;20454;-70
2022/10/14 00:30:13;;;;;;;26.27;18.57;;;10.00;99.90;;;9.98;100.00;101097.31;4994221;28;20448;-70
2022/10/14 00:32:43;;;;;;;29.80;18.20;;;10.00;99.90;;;10.00;100.00;101106.94;4993912;28;20807;-70
2022/10/14 00:35:12;;;;;;;27.90;18.50;;;10.10;99.90;;;10.01;100.00;101103.19;4973318;28;20457;-69
2022/10/14 00:37:41;;;;;;;28.20;19.30;;;10.10;99.90;;;9.97;100.00;101101.06;4971550;28;20560;-70
2022/10/14 00:40:11;;;;;;;30.37;19.10;;;10.10;99.90;;;9.87;100.00;101100.56;4987785;28;20442;-70
2022/10/14 00:42:40;;;;;;;32.00;16.87;;;10.00;99.90;;;9.83;100.00;101093.84;4996143;28;20528;-70
2022/10/14 00:45:15;;;;;;;28.03;17.80;;;10.00;99.90;;;9.67;100.00;101099.50;4997420;28;20433;-69
2022/10/14 00:47:47;;;;;;;28.30;16.10;;;9.90;99.90;;;9.58;100.00;101090.69;4997353;28;20509;-69
2022/10/14 00:50:18;;;;;;;29.63;18.30;;;9.80;99.90;;;9.55;100.00;101096.44;4997284;28;20444;-69
2022/10/14 00:52:48;;;;;;;27.00;18.70;;;9.70;99.90;;;9.53;100.00;101099.38;4997406;28;20430;-69
2022/10/14 00:55:19;;;;;;;25.37;19.57;;;9.70;99.90;;;9.55;100.00;101102.69;4990233;28;20430;-70
2022/10/14 00:57:48;;;;;;;24.50;17.80;;;9.70;99.90;;;9.61;100.00;101098.41;4997188;28;20472;-70
2022/10/14 01:00:19;;;;;;;24.20;17.27;;;9.70;99.90;;;9.71;100.00;101096.22;4997947;28;20947;-70
2022/10/14 01:02:50;;;;;;;26.03;19.57;;;9.70;99.90;;;9.77;100.00;101095.47;4997112;28;20436;-69
2022/10/14 01:05:20;;;;;;;29.60;18.23;;;9.80;99.90;;;9.82;100.00;101097.59;4979457;28;20421;-69
2022/10/14 01:08:05;;;;;;;23.87;17.87;;;9.80;99.90;;;9.97;100.00;101098.38;4979237;28;20904;-69
2022/10/14 01:10:47;;;;;;;28.00;18.17;;;10.00;99.90;;;10.13;100.00;101094.53;4982419;28;20440;-71
2022/10/14 01:13:26;;;;;;;29.10;17.63;;;10.10;99.90;;;10.24;100.00;101092.19;4977672;28;20411;-69
2022/10/14 01:16:15;;;;;;;33.03;18.60;;;10.20;99.90;;;10.28;100.00;101088.06;4992812;28;20453;-70
2022/10/14 01:19:10;;;;;;;22.57;17.30;;;10.30;99.90;;;10.19;100.00;101085.69;4996804;28;20471;-70
2022/10/14 01:21:48;;;;;;;28.40;18.30;;;10.20;99.90;;;10.14;100.00;101080.84;4980039;28;20453;-70
2022/10/14 01:24:43;;;;;;;23.83;17.00;;;10.20;99.90;;;10.19;100.00;101083.00;4996571;28;20420;-69
2022/10/14 01:27:59;;;;;;;23.43;17.43;;;10.20;99.90;;;10.39;99.08;101084.00;4996497;28;20456;-68
2022/10/14 01:30:32;;;;;;;28.97;18.47;;;10.30;99.90;;;10.09;99.20;101088.69;5002116;28;20435;-69
2022/10/14 01:33:13;;;;;;;26.57;19.00;;;10.20;99.90;;;9.86;100.00;101088.06;4997117;28;20857;-70
2022/10/14 01:36:01;;;;;;;24.03;17.47;;;10.10;99.90;;;9.73;100.00;101082.53;4996660;28;20801;-71
2022/10/14 01:38:36;;;;;;;23.13;15.90;;;9.90;99.90;;;9.58;100.00;101090.69;4978987;28;20554;-70
2022/10/14 01:41:17;;;;;;;21.27;16.33;;;9.80;99.90;;;9.45;100.00;101077.00;4996531;28;20865;-70
2022/10/14 01:43:50;;;;;;;25.13;17.77;;;9.70;99.90;;;9.35;100.00;101073.78;4989069;28;20957;-70
2022/10/14 01:46:25;;;;;;;25.20;15.70;;;9.60;99.90;;;9.33;100.00;101073.13;4996633;28;20550;-70
2022/10/14 01:49:02;;;;;;;25.77;17.47;;;9.50;99.90;;;9.24;100.00;101071.59;4991363;28;20676;-69
2022/10/14 01:51:38;;;;;;;28.47;17.00;;;9.40;99.90;;;9.16;100.00;101073.34;4995787;28;20416;-68
2022/10/14 01:54:15;;;;;;;28.37;18.27;;;9.30;99.90;;;9.20;100.00;101076.50;5017731;28;20813;-69
2022/10/14 01:56:48;;;;;;;34.03;18.70;;;9.40;99.90;;;9.12;100.00;101072.06;4996151;28;20489;-69
2022/10/14 01:59:22;;;;;;;25.20;18.53;;;9.30;99.90;;;9.03;100.00;101070.50;4986767;28;20485;-69
2022/10/14 02:01:52;;;;;;;31.03;16.83;;;9.20;99.90;;;9.04;100.00;101071.31;4978749;28;20512;-69
2022/10/14 02:04:23;;;;;;;29.70;17.97;;;9.20;99.90;;;8.90;100.00;101069.47;4996226;28;20791;-69
2022/10/14 02:07:04;;;;;;;27.57;18.30;;;9.10;99.90;;;8.85;100.00;101072.75;4994682;28;20485;-69
2022/10/14 02:09:48;;;;;;;29.23;16.75;;;9.00;99.90;;;8.84;100.00;101065.66;4983562;28;20941;-69
2022/10/14 02:12:37;;;;;;;27.52;16.85;;;9.00;99.90;;;8.75;100.00;101066.78;4996105;28;20209;-70
2022/10/14 02:15:19;;;;;;;30.50;18.93;;;8.90;99.90;;;8.70;100.00;101069.19;4967645;28;20199;-69
2022/10/14 02:18:00;;;;;;;31.13;18.10;;;8.80;99.90;;;8.66;100.00;101062.50;4958794;28;20477;-69
2022/10/14 02:20:36;;;;;;;34.03;18.20;;;8.80;99.90;;;8.59;100.00;101072.34;4985048;28;20444;-70
2022/10/14 02:23:15;;;;;;;30.30;16.17;;;8.80;99.90;;;8.63;100.00;101070.94;4995636;28;20498;-70
2022/10/14 02:25:48;;;;;;;26.10;17.57;;;8.80;99.90;;;8.52;100.00;101069.53;4980012;28;20545;-70
2022/10/14 02:28:20;;;;;;;25.27;16.85;;;8.70;99.90;;;8.52;100.00;101066.84;4995605;28;20458;-69
2022/10/14 02:30:57;;;;;;;25.23;17.98;;;8.70;99.90;;;8.58;100.00;101065.28;4995629;28;20674;-69
2022/10/14 02:33:37;;;;;;;30.67;19.33;;;8.70;99.90;;;8.74;100.00;101073.19;4975066;28;20195;-69
2022/10/14 02:36:11;;;;;;;26.52;18.27;;;8.80;99.90;;;9.02;100.00;101085.00;4983218;28;20225;-69
2022/10/14 02:38:43;;;;;;;26.83;18.90;;;9.00;99.90;;;8.92;100.00;101080.91;4995675;28;20195;-69
2022/10/14 02:41:18;;;;;;;29.48;20.60;;;9.00;99.90;;;8.82;100.00;101077.66;4995304;28;20201;-69
2022/10/14 02:43:47;;;;;;;25.27;18.83;;;8.90;99.90;;;8.86;100.00;101078.97;4977560;28;20621;-69
2022/10/14 02:46:21;;;;;;;27.83;18.27;;;8.90;99.90;;;9.17;100.00;101087.69;4977984;28;20222;-70
2022/10/14 02:48:54;;;;;;;24.33;17.33;;;9.10;99.90;;;9.26;100.00;101081.16;5003362;28;20241;-69
2022/10/14 02:51:23;;;;;;;31.23;19.87;;;9.30;99.90;;;9.45;100.00;101090.50;4986487;28;20258;-70
2022/10/14 02:53:52;;;;;;;25.50;17.85;;;9.40;99.90;;;9.43;100.00;101082.63;5005844;28;20444;-70
2022/10/14 02:56:21;;;;;;;26.27;18.20;;;9.40;99.90;;;9.47;100.00;101083.06;4997157;28;20733;-68
2022/10/14 02:58:49;;;;;;;27.13;17.87;;;9.50;99.90;;;9.59;100.00;101086.94;4995903;28;20564;-70
2022/10/14 03:01:18;;;;;;;31.83;17.10;;;9.60;99.90;;;9.66;100.00;101074.34;4995494;28;20434;-69
2022/10/14 03:03:47;;;;;;;23.80;17.33;;;9.60;99.90;;;9.63;100.00;101072.03;4978689;28;20230;-69
2022/10/14 03:06:20;;;;;;;27.47;17.90;;;9.60;99.90;;;9.66;100.00;101074.34;4986076;28;20465;-69
2022/10/14 03:08:49;;;;;;;27.90;19.00;;;9.70;99.90;;;9.82;100.00;101063.28;4977999;28;20451;-69
2022/10/14 03:11:19;;;;;;;27.03;18.57;;;9.70;99.90;;;9.74;100.00;101062.56;4978073;28;20865;-70
2022/10/14 03:13:48;;;;;;;22.17;16.37;;;9.70;99.90;;;9.78;100.00;101059.28;4977883;28;20537;-69
2022/10/14 03:16:17;;;;;;;27.60;16.87;;;9.80;99.90;;;9.77;100.00;101057.63;4978404;28;20528;-69
2022/10/14 03:18:46;;;;;;;40.23;19.47;;;9.80;99.90;;;9.76;100.00;101055.94;4964523;28;20455;-70
2022/10/14 03:21:24;;;;;;;23.27;16.43;;;9.80;99.90;;;9.77;100.00;101054.94;4995548;28;20959;-70
2022/10/14 03:23:54;;;;;;;23.77;16.03;;;9.80;99.90;;;9.91;100.00;101048.63;4978305;28;20477;-70
2022/10/14 03:26:32;;;;;;;25.20;16.13;;;9.80;99.90;;;10.00;100.00;101047.44;4962357;28;20796;-70
2022/10/14 03:29:01;;;;;;;27.17;18.97;;;9.90;99.90;;;9.96;100.00;101040.75;4981912;28;20441;-70
2022/10/14 03:31:48;;;;;;;24.10;17.00;;;9.90;99.90;;;9.89;100.00;101045.25;4983474;28;20537;-70
2022/10/14 03:34:33;;;;;;;22.37;17.03;;;9.90;99.90;;;9.89;100.00;101039.84;4996249;28;20442;-69
2022/10/14 03:37:13;;;;;;;23.40;16.37;;;9.90;99.90;;;10.10;100.00;101040.88;4983422;28;20535;-69
2022/10/14 03:39:48;;;;;;;22.73;15.97;;;9.90;99.90;;;9.94;100.00;101042.81;4978469;28;20513;-69
2022/10/14 03:42:18;;;;;;;21.30;15.63;;;9.90;99.90;;;9.83;100.00;101035.22;4978700;28;20475;-69
2022/10/14 03:44:49;;;;;;;24.73;16.17;;;9.90;99.90;;;9.84;100.00;101042.31;4978966;28;20448;-70
2022/10/14 03:47:27;;;;;;;23.90;17.63;;;9.90;99.90;;;9.77;100.00;101045.97;4996477;28;20432;-70
2022/10/14 03:49:56;;;;;;;23.00;16.10;;;9.80;99.90;;;9.57;100.00;101045.78;4993248;28;20461;-70
2022/10/14 03:52:35;;;;;;;19.50;15.60;;;9.70;99.90;;;9.45;100.00;101041.91;4957823;28;20819;-69
2022/10/14 03:55:15;;;;;;;21.50;16.33;;;9.60;99.90;;;9.34;100.00;101032.44;4977469;28;20873;-71
2022/10/14 03:57:45;;;;;;;23.80;16.23;;;9.50;99.90;;;9.35;100.00;101035.97;4974877;28;20441;-71
2022/10/14 04:00:16;;;;;;;26.00;15.90;;;9.40;99.90;;;9.23;100.00;101032.09;5006961;28;20469;-69
2022/10/14 04:02:50;;;;;;;22.50;16.80;;;9.40;99.90;;;9.12;100.00;101036.97;4965238;28;20533;-69
2022/10/14 04:05:36;;;;;;;23.27;17.00;;;9.30;99.90;;;9.06;100.00;101032.31;4993302;28;20436;-69
2022/10/14 04:08:17;;;;;;;21.93;16.53;;;9.20;99.90;;;8.99;100.00;101035.97;4976511;28;20956;-68
2022/10/14 04:11:09;;;;;;;21.15;14.70;;;9.10;99.90;;;9.34;100.00;101037.00;4994636;28;20808;-68
2022/10/14 04:13:40;;;;;;;26.53;17.20;;;9.30;99.90;;;9.43;100.00;101043.97;4993348;28;20163;-69
2022/10/14 04:16:12;;;;;;;22.50;14.83;;;9.40;99.90;;;9.38;100.00;101041.00;4981621;28;20461;-69
2022/10/14 04:18:59;;;;;;;31.63;17.17;;;9.40;99.90;;;9.18;100.00;101031.81;4976662;28;20873;-69
2022/10/14 04:21:28;;;;;;;27.30;17.47;;;9.30;99.90;;;9.20;100.00;101043.28;4976562;28;20751;-69
2022/10/14 04:23:59;;;;;;;24.65;16.88;;;9.30;99.90;;;9.13;100.00;101029.69;4976082;28;20460;-69
2022/10/14 04:26:43;;;;;;;23.25;17.20;;;9.30;99.90;;;9.04;100.00;101031.69;4969791;28;20230;-69
2022/10/14 04:29:18;;;;;;;23.77;17.47;;;9.20;99.90;;;9.11;100.00;101023.63;4973475;28;20292;-69
2022/10/14 04:31:55;;;;;;;26.93;17.17;;;9.20;99.90;;;9.12;100.00;101031.56;4957017;28;20462;-68
2022/10/14 04:34:24;;;;;;;28.13;17.03;;;9.30;99.90;;;9.07;100.00;101023.19;4956749;28;20442;-71
2022/10/14 04:36:54;;;;;;;24.27;14.17;;;9.20;99.90;;;9.02;100.00;101020.22;4971950;28;20605;-69
2022/10/14 04:39:43;;;;;;;27.80;16.55;;;9.20;99.90;;;8.95;100.00;101019.31;5008405;28;20479;-70
2022/10/14 04:42:13;;;;;;;31.02;16.25;;;9.10;99.90;;;8.87;100.00;101019.41;4997984;28;20217;-70
2022/10/14 04:44:44;;;;;;;27.90;16.65;;;9.00;99.90;;;8.93;100.00;101021.34;4992430;28;20195;-70
2022/10/14 04:47:14;;;;;;;28.55;16.75;;;9.00;99.90;;;8.99;100.00;101015.22;4977034;28;20312;-70
2022/10/14 04:49:48;;;;;;;27.70;17.30;;;9.10;99.90;;;9.00;100.00;101011.50;4982117;28;20222;-68
2022/10/14 04:52:20;;;;;;;25.08;16.70;;;9.10;99.90;;;9.03;100.00;101011.09;4978144;28;20489;-69
2022/10/14 04:54:59;;;;;;;23.30;15.98;;;9.10;99.90;;;9.07;100.00;101012.38;5005264;28;20229;-70
2022/10/14 04:57:35;;;;;;;27.10;16.17;;;9.20;99.90;;;9.07;100.00;101008.84;4977602;28;20230;-68
2022/10/14 05:00:05;;;;;;;31.52;19.05;;;9.10;99.90;;;9.15;100.00;101009.56;4978461;28;20206;-69
2022/10/14 05:03:00;;;;;;;25.87;17.10;;;9.20;99.90;;;9.27;100.00;101015.31;4982759;28;20213;-69
2022/10/14 05:05:34;;;;;;;26.53;17.07;;;9.30;99.90;;;9.44;100.00;101013.22;4995173;28;20469;-71
2022/10/14 05:08:06;;;;;;;29.20;17.93;;;9.40;99.90;;;9.55;100.00;101007.31;4992827;28;20417;-70
2022/10/14 05:10:40;;;;;;;24.50;16.57;;;9.50;99.90;;;9.58;100.00;101018.53;4983048;28;20430;-70
2022/10/14 05:13:16;;;;;;;35.93;18.73;;;9.60;99.90;;;9.58;100.00;101009.63;4979516;28;20420;-70
2022/10/14 05:15:55;;;;;;;22.93;17.30;;;9.60;99.90;;;9.60;100.00;101007.56;4976793;28;20543;-68
2022/10/14 05:18:24;;;;;;;26.47;17.73;;;9.60;99.90;;;9.77;100.00;101014.38;4977237;28;20444;-70
2022/10/14 05:21:00;;;;;;;26.07;17.50;;;9.70;99.90;;;9.80;100.00;101011.28;4977002;28;20469;-70
2022/10/14 05:23:48;;;;;;;35.67;18.07;;;9.70;99.90;;;9.86;100.00;101012.38;4994020;28;20412;-69
2022/10/14 05:26:18;;;;;;;23.80;16.67;;;9.80;99.90;;;10.00;100.00;101017.72;4981679;28;20465;-68
2022/10/14 05:28:48;;;;;;;26.33;16.40;;;9.90;99.90;;;10.09;100.00;101013.00;4976834;28;20455;-69
2022/10/14 05:31:19;;;;;;;26.60;16.20;;;10.00;99.90;;;10.08;100.00;101008.59;4988418;28;20419;-68
2022/10/14 05:33:59;;;;;;;19.63;17.10;;;10.10;99.90;;;10.17;100.00;101006.63;5011966;28;20413;-70
2022/10/14 05:36:27;;;;;;;25.43;17.43;;;10.10;99.90;;;10.19;100.00;101007.25;4996379;28;20520;-69
2022/10/14 05:38:57;;;;;;;29.77;20.00;;;10.20;99.90;;;10.19;100.00;101001.84;4975694;28;20457;-69
2022/10/14 05:41:32;;;;;;;24.57;17.40;;;10.20;99.90;;;10.31;100.00;100998.41;4976014;28;20934;-68
2022/10/14 05:44:02;;;;;;;26.07;16.67;;;10.20;99.90;;;10.49;99.32;101008.72;4979267;28;20954;-69
2022/10/14 05:46:31;;;;;;;25.30;15.20;;;10.30;99.90;;;10.51;99.10;101001.22;4996481;28;20435;-69
2022/10/14 05:49:04;;;;;;;26.00;14.83;;;10.40;99.90;;;10.46;98.68;101001.00;4979532;28;20492;-69
2022/10/14 05:51:36;;;;;;;22.97;15.50;;;10.40;99.90;;;10.44;99.32;101000.38;5003062;28;20544;-69
2022/10/14 05:54:12;;;;;;;22.33;13.83;;;10.40;99.90;;;10.53;98.89;100998.34;4979222;28;20433;-69
2022/10/14 05:56:44;;;;;;;20.93;15.20;;;10.40;99.90;;;10.73;98.18;100994.72;4978779;28;20448;-69
2022/10/14 05:59:14;;;;;;;24.57;15.97;;;10.50;99.90;;;10.71;97.61;100996.78;4994949;28;20464;-69
2022/10/14 06:01:43;;;;;;;27.67;16.67;;;10.60;99.90;;;10.62;97.86;100995.28;4978502;28;20459;-68
2022/10/14 06:04:18;;;;;;;23.63;15.03;;;10.50;99.90;;;10.58;97.89;100990.47;4978754;28;20511;-68
2022/10/14 06:06:47;;;;;;;24.83;16.53;;;10.50;99.90;;;10.78;97.21;100989.53;4980402;28;20531;-71
2022/10/14 06:09:17;;;;;;;22.43;15.80;;;10.60;99.90;;;10.90;96.62;100997.91;4988552;28;20823;-70
2022/10/14 06:11:47;;;;;;;24.53;14.67;;;10.60;99.90;;;10.78;96.31;100991.41;4995979;28;20408;-69
2022/10/14 06:14:16;;;;;;;21.87;15.60;;;10.70;99.90;;;10.81;96.42;100990.97;4978425;28;20452;-68
2022/10/14 06:16:49;;;;;;;25.33;16.37;;;10.60;99.90;;;10.82;96.58;100990.78;4989529;28;20989;-69
2022/10/14 06:19:18;;;;;;;22.10;16.00;;;10.70;99.90;;;10.86;96.61;101005.59;4989725;28;20511;-69
2022/10/14 06:21:47;;;;;;;29.60;17.73;;;10.70;99.90;;;11.09;95.20;101004.41;4996041;28;20417;-71
2022/10/14 06:24:16;;;;;;;21.33;15.67;;;10.90;99.90;;;11.12;94.55;101007.59;4995619;28;20434;-70
2022/10/14 06:26:47;;;;;;;30.50;15.27;;;11.00;99.90;;;11.10;94.46;100995.25;4995715;28;20877;-70
2022/10/14 06:29:17;;;;;;;23.83;14.80;;;11.00;99.90;;;11.07;94.69;100995.69;4995760;28;20427;-69
2022/10/14 06:31:45;;;;;;;21.90;14.13;;;11.00;99.90;;;11.28;93.89;101007.19;4982803;28;20454;-69
2022/10/14 06:34:14;;;;;;;19.77;15.10;;;11.10;99.90;;;11.29;93.13;101005.31;4996435;28;20830;-70
2022/10/14 06:36:43;;;;;;;29.67;14.93;;;11.10;99.90;;;11.34;93.03;101005.56;4980290;28;20454;-69
2022/10/14 06:39:12;;;;;;;19.83;14.63;;;11.20;99.90;;;11.34;92.92;101006.41;4998142;28;20470;-70
2022/10/14 06:41:40;;;;;;;25.10;20.00;;;11.20;99.90;;;11.43;92.44;101001.63;4979319;28;20482;-70
2022/10/14 06:44:20;;;;;;;23.80;14.03;;;11.20;99.90;;;11.48;92.35;101003.69;4996264;28;20524;-70
2022/10/14 06:46:49;;;;;;;24.80;16.33;;;11.20;99.90;;;11.53;91.97;101007.47;4996662;28;20902;-69
2022/10/14 06:49:18;;;;;;;20.70;15.10;;;11.30;99.90;;;11.65;90.92;101003.13;4996118;28;20404;-69
2022/10/14 06:51:47;;;;;;;22.17;14.83;;;11.40;99.90;;;11.62;90.91;101000.81;4996577;28;20441;-69
2022/10/14 06:54:17;;;;;;;27.63;16.43;;;11.40;99.90;;;11.73;90.77;100997.53;4995433;28;20433;-69
2022/10/14 06:56:45;;;;;;;25.77;16.60;;;11.50;99.90;;;11.88;89.65;101005.47;4994984;28;20433;-69
2022/10/14 06:59:14;;;;;;;27.97;15.37;;;11.60;99.90;;;12.01;89.14;101010.06;4995311;28;20565;-70
2022/10/14 07:01:44;;;;;;;24.93;16.87;;;11.70;99.90;;;12.14;87.42;101010.06;4977852;28;20452;-71
2022/10/14 07:04:13;;;;;;;29.10;16.50;;;11.90;99.90;;;12.39;86.54;101021.91;4995468;28;20795;-70
2022/10/14 07:06:42;;;;;;;23.17;15.80;;;12.10;99.90;;;12.34;87.15;101015.47;4995374;28;20459;-70
2022/10/14 07:09:11;;;;;;;30.07;16.17;;;12.10;99.90;;;12.36;86.55;101008.78;4998929;28;20453;-69
2022/10/14 07:11:41;;;;;;;22.50;16.30;;;12.10;99.90;;;12.67;85.15;101021.69;4994573;28;20489;-70
2022/10/14 07:14:10;;;;;;;20.47;14.40;;;12.30;99.90;;;12.51;85.88;101017.53;4995635;28;20422;-69
2022/10/14 07:16:39;;;;;;;25.53;15.23;;;12.30;99.90;;;12.68;85.57;101028.78;4994680;28;20450;-70
2022/10/14 07:19:09;;;;;;;25.93;17.20;;;12.40;99.90;;;12.79;84.64;101025.38;4994593;28;20405;-70
2022/10/14 07:21:38;;;;;;;22.57;14.30;;;12.50;98.00;;;12.89;83.91;101030.38;4977478;28;20474;-70
2022/10/14 07:24:08;;;;;;;26.73;15.13;;;12.60;42.10;;;12.77;83.80;101024.78;4995247;28;20907;-71
2022/10/14 07:26:37;;;;;;;21.37;15.93;;;12.50;99.90;;;12.76;84.46;101027.69;4994457;28;20512;-70
2022/10/14 07:29:06;;;;;;;18.13;13.43;;;12.50;99.90;;;12.92;83.82;101035.41;4994878;28;20434;-70
2022/10/14 07:31:35;;;;;;;21.73;14.23;;;12.60;99.90;;;12.85;83.83;101029.97;4994775;28;20430;-69
2022/10/14 07:34:04;;;;;;;25.97;16.57;;;12.60;99.90;;;12.89;84.11;101030.38;4994832;28;20412;-69
2022/10/14 07:36:35;;;;;;;21.40;15.57;;;12.60;99.90;;;12.88;84.37;101034.13;4981052;28;20428;-71
2022/10/14 07:39:04;;;;;;;28.30;15.87;;;12.50;99.90;;;13.10;84.25;101038.25;4994004;28;20415;-70
2022/10/14 07:41:33;;;;;;;26.00;16.70;;;12.80;99.90;;;13.40;81.89;101042.13;4994286;28;20444;-70
2022/10/14 07:44:08;;;;;;;27.07;15.60;;;13.00;99.90;;;13.29;82.06;101045.50;4994111;28;20409;-69
2022/10/14 07:46:40;;;;;;;19.07;15.37;;;13.00;99.90;;;13.16;82.08;101040.16;4990140;28;20447;-71
2022/10/14 07:49:13;;;;;;;22.57;15.30;;;12.90;99.90;;;13.12;82.07;101036.16;4974851;28;20401;-70
2022/10/14 07:51:44;;;;;;;25.43;14.80;;;12.80;99.90;;;13.18;82.10;101035.31;4987856;28;20404;-70
2022/10/14 07:54:17;;;;;;;24.90;16.10;;;12.80;99.90;;;13.43;81.04;101044.41;4994530;28;20500;-70
2022/10/14 07:56:48;;;;;;;23.47;15.77;;;13.10;99.90;;;13.29;81.12;101041.94;4988913;28;20464;-69
2022/10/14 07:59:18;;;;;;;18.50;16.23;;;13.00;99.90;;;13.22;81.46;101036.53;4977236;28;20477;-71
2022/10/14 08:01:47;;;;;;;23.87;14.63;;;12.90;99.90;;;13.32;81.07;101033.34;4979408;28;20606;-70
2022/10/14 08:04:17;;;;;;;22.20;15.70;;;13.00;99.90;;;13.48;81.00;101032.88;4994284;28;20415;-70
2022/10/14 08:06:49;;;;;;;22.10;16.27;;;13.10;99.90;;;13.36;81.47;101027.25;4993053;28;20805;-71
2022/10/14 08:09:19;;;;;;;26.70;16.20;;;13.00;99.90;;;13.53;81.17;101026.78;4990131;28;20433;-70
2022/10/14 08:11:48;;;;;;;18.80;15.93;;;13.20;99.90;;;13.54;81.09;101023.00;4994291;28;20499;-69
2022/10/14 08:14:17;;;;;;;21.03;17.47;;;13.10;99.90;;;13.58;80.53;101025.06;4994641;28;20409;-70
2022/10/14 08:16:46;;;;;;;27.47;18.40;;;13.20;99.90;;;13.81;79.62;101030.75;4994336;28;20432;-70
2022/10/14 08:19:15;;;;;;;20.73;15.27;;;13.30;99.90;;;13.93;78.67;101025.47;4994037;28;20414;-70
2022/10/14 08:21:44;;;;;;;25.77;17.10;;;13.50;99.90;;;13.80;79.57;101033.69;4994583;28;20443;-70
2022/10/14 08:24:14;;;;;;;23.87;17.63;;;13.50;99.90;;;13.83;79.78;101030.56;4994092;28;20408;-71
2022/10/14 08:26:53;;;;;;;27.23;17.13;;;13.50;99.90;;;13.68;80.09;101024.59;4993951;28;20464;-70
2022/10/14 08:29:23;;;;;;;23.03;15.70;;;13.40;99.90;;;13.73;80.20;101027.47;4993861;28;20392;-68
2022/10/14 08:31:54;;;;;;;21.23;16.33;;;13.40;99.90;;;13.86;80.13;101021.94;4993886;28;20416;-70
2022/10/14 08:34:23;;;;;;;21.67;15.40;;;13.50;99.90;;;14.08;79.40;101022.41;4986378;28;20416;-69
2022/10/14 08:36:52;;;;;;;27.67;17.57;;;13.60;99.90;;;14.19;78.60;101017.06;4993932;28;20516;-71
2022/10/14 08:39:22;;;;;;;22.27;15.57;;;13.80;99.90;;;14.43;77.95;101020.00;4991951;28;20438;-71
2022/10/14 08:42:22;;;;;;;25.23;16.60;;;14.00;99.90;;;14.64;76.24;101014.16;4993943;28;20535;-70
2022/10/14 08:45:06;;;;;;;23.77;15.93;;;14.20;99.90;;;14.88;75.32;101006.97;4989997;28;20850;-71
2022/10/14 08:47:41;;;;;;;20.10;14.80;;;14.50;99.90;;;14.87;75.03;101010.75;4994929;28;20961;-70
2022/10/14 08:50:25;;;;;;;26.37;16.23;;;14.50;99.90;;;15.06;75.52;101005.06;4995535;28;20446;-70
2022/10/14 08:53:02;;;;;;;27.30;16.50;;;14.70;99.90;;;15.36;73.58;101002.34;4983295;28;20458;-70
2022/10/14 08:55:43;;;;;;;29.43;16.27;;;14.90;99.90;;;15.60;74.26;100997.84;4979755;28;20444;-71
2022/10/14 08:58:21;;;;;;;22.70;14.97;;;15.10;99.90;;;16.07;71.31;101001.53;4995044;28;20520;-71
2022/10/14 09:00:53;;;;;;;24.30;15.33;;;15.40;99.90;;;16.48;69.20;100995.94;4997945;28;20437;-70
2022/10/14 09:03:25;;;;;;;22.17;14.10;;;15.80;99.90;;;16.52;69.25;101001.75;4999183;28;20988;-71
2022/10/14 09:06:01;;;;;;;23.27;14.90;;;16.00;99.90;;;16.64;69.39;101010.00;4983984;28;20987;-70
2022/10/14 09:08:38;;;;;;;18.33;15.50;;;16.10;99.90;;;17.05;67.54;101011.69;4998061;28;20433;-71
2022/10/14 09:11:14;;;;;;;33.60;16.63;;;16.40;99.90;;;17.30;65.87;101004.81;4997185;28;20969;-71
2022/10/14 09:13:48;;;;;;;17.33;15.40;;;16.70;97.10;;;17.39;65.39;101008.00;4992949;28;20441;-70
2022/10/14 09:16:22;;;;;;;19.70;15.17;;;16.90;94.10;;;17.50;64.99;101004.38;4996525;28;20425;-69
2022/10/14 09:18:55;;;;;;;23.43;15.30;;;16.90;90.90;;;17.61;64.54;101000.81;4984543;28;20412;-70
2022/10/14 09:21:33;;;;;;;19.93;15.17;;;17.10;85.50;;;17.62;64.52;101001.63;4997352;28;20462;-69
2022/10/14 09:24:23;;;;;;;22.00;15.80;;;17.20;80.30;;;17.68;64.11;101001.47;4997041;28;20401;-72
2022/10/14 09:26:58;;;;;;;21.70;15.30;;;17.20;76.50;;;17.76;63.92;100994.78;4996797;28;20428;-72
2022/10/14 09:29:30;;;;;;;28.60;16.13;;;;;;;17.45;64.78;100995.25;4996987;28;20491;-71
2022/10/14 09:32:04;;;;;;;20.17;15.80;;;17.30;74.30;;;17.33;64.73;100992.59;4998057;28;20409;-71
2022/10/14 09:34:38;;;;;;;20.97;14.97;;;17.10;67.00;;;17.24;64.88;100985.81;4995196;28;20459;-72
2022/10/14 09:37:26;;;;;;;17.63;14.00;;;16.90;63.80;;;17.21;64.97;100989.06;4997220;28;20449;-72
2022/10/14 09:40:01;;;;;;;26.10;13.57;;;16.90;65.20;;;17.22;64.87;100991.56;4997039;28;20491;-73
2022/10/14 09:42:48;;;;;;;17.33;14.20;;;16.90;63.80;;;17.11;65.38;100989.69;4990418;28;20823;-71
2022/10/14 09:45:21;;;;;;;26.63;13.60;;;16.80;64.50;;;17.32;64.73;100983.53;4997039;28;20503;-71
2022/10/14 09:47:55;;;;;;;20.80;14.83;;;16.90;61.40;;;17.28;64.41;100978.81;4996525;28;20424;-71
2022/10/14 09:50:31;;;;;;;17.50;13.07;;;17.00;59.60;;;17.33;63.93;100981.66;4996720;28;20445;-70
2022/10/14 09:53:05;;;;;;;19.00;14.37;;;17.00;56.30;;;17.27;64.09;100982.63;4996879;28;20429;-71
2022/10/14 09:55:48;;;;;;;17.67;12.27;;;16.90;54.70;;;17.39;64.18;100976.00;4995949;28;20411;-72
2022/10/14 09:58:26;;;;;;;16.83;12.40;;;17.00;54.50;;;17.99;62.75;100980.09;4991141;28;20444;-71
2022/10/14 10:00:59;;;;;;;18.17;12.90;;;17.40;53.90;;;18.21;61.46;100972.78;4996335;28;20442;-70
2022/10/14 10:03:32;;;;;;;18.63;12.33;;;17.60;50.50;;;18.09;60.80;100970.13;4996033;28;20473;-71
2022/10/14 10:06:06;;;;;;;17.93;13.60;;;17.60;43.50;;;17.98;60.94;100972.97;4978800;28;20452;-71
2022/10/14 10:08:39;;;;;;;21.83;11.93;;;17.60;42.50;;;17.88;61.76;100961.84;4996689;28;20404;-71
2022/10/14 10:11:12;;;;;;;19.93;13.57;;;17.50;40.70;;;18.04;61.53;100961.00;4994941;28;20444;-71
2022/10/14 10:13:45;;;;;;;19.10;13.67;;;17.70;39.90;;;17.85;62.25;100960.44;4995852;28;20441;-70
2022/10/14 10:16:25;;;;;;;15.37;12.20;;;17.60;39.10;;;17.95;61.76;100957.03;4996217;28;20461;-71
2022/10/14 10:18:56;;;;;;;15.60;11.73;;;17.60;39.50;;;17.80;61.53;100961.19;4989895;28;20429;-70
2022/10/14 10:21:28;;;;;;;19.00;14.03;;;17.50;36.20;;;17.66;62.81;100959.84;4996080;28;20461;-71
2022/10/14 10:23:59;;;;;;;16.03;11.90;;;17.50;37.40;;;17.78;62.63;100955.13;4998330;28;20434;-71
2022/10/14 10:26:32;;;;;;;18.73;12.93;;;17.50;37.20;;;17.70;63.28;100950.06;4999501;28;20460;-71
2022/10/14 10:29:05;;;;;;;18.20;14.07;;;17.40;37.70;;;17.77;63.19;100949.88;4994398;28;20413;-71